Queretaro Airport, México

8:07 AM CDT en Julio 23, 2016 (GMT -0500)
Ing F. Espinoza Gutierrez International | | Change Station

Alt 6293 ft 20.62 °N, 100.18 °W | Updated 22 minutes ago

Scattered Clouds
Nubes dispersas
55 ° F
Sensación térmica 55 ° F
N
6
Viento Variable Viento desde Oeste

Hoy
Alta -- | Baja -- ° F
--% Posibilidad de precipitaciones
Ayer
Alta -- | Baja -- ° F
Precip. -- pul
Presión 30.34 pul
Visibilidad 6.0 Millas
Nubes Nubes dispersas 10000 ft
Nubes dispersas 25000 ft
Punto de rocío 54 ° F
Humedad 94%
Precipitaciones 0.00 pul
Espesor de la nieve No disponible.
7:12 AM 8:22 PM
Gibosa menguante, 85% visible
METAR MMQT 231245Z 28005KT 6SM SCT100 SCT250 13/12 A3034 RMK 8/032 HZY
Presión 30.34 pul
Visibilidad 6.0 Millas
Nubes Nubes dispersas 10000 ft
Nubes dispersas 25000 ft
Punto de rocío 54 ° F
Humedad 94%
Precipitaciones 0.00 pul
Espesor de la nieve No disponible.
7:12 AM 8:22 PM
Gibosa menguante, 85% visible
METAR MMQT 231245Z 28005KT 6SM SCT100 SCT250 13/12 A3034 RMK 8/032 HZY

10-Day Weather Forecast

No radar image for this location.
×

Almanac

Astronomía

Jul. 23, 2016 Salida Puesta
Hora real
Crepúsculo civil
Crepúsculo náutico
Crepúsculo astronómico
Luna
Horas de luz
Horas de luz
Tomorrow will be .
, % of the Moon is Illuminated

Extremos de hoy

Máximos del país Bajas del país

Community

WunderPhotos

Upload Photos

1,926,816 ¡fotos cargadas!

WunderBlog® & News

Nearby

Calidad del aire

  Calidad del aire Índice AQ Contaminante
Not available.

Grosos de nieve

Estación Profundido Altura

Actividad de terremotos

Ciudad Distance Mag. Tiempo y dato
Magnitud mínima muestra es 2,5.

Temperaturas de aguas costeras

Lugar Temperatura

Stations

Estaciones meteorológicas cercanas

Ubicación de la estación Temp. Vientos helados Punto de rocío Humedad Viento Precip. Alt Actualizado Tipo